createdAt,value
2018-10-12T00:04:07.691Z,1.77
2018-10-12T00:09:12.134Z,1.93
2018-10-12T00:14:16.353Z,2.50
2018-10-12T00:19:20.655Z,2.30
2018-10-12T00:24:24.997Z,2.30
2018-10-12T00:29:29.281Z,2.10
2018-10-12T00:34:33.592Z,2.27
2018-10-12T00:39:37.980Z,2.20
2018-10-12T00:44:42.128Z,2.10
2018-10-12T00:49:46.351Z,2.37
2018-10-12T00:54:50.724Z,2.33
2018-10-12T00:59:54.961Z,2.50
2018-10-12T01:04:59.160Z,2.23
2018-10-12T01:10:03.503Z,2.23
2018-10-12T01:15:07.756Z,1.83
2018-10-12T01:20:12.101Z,1.80
2018-10-12T01:25:16.722Z,1.80
2018-10-12T01:30:21.227Z,2.00
2018-10-12T01:35:25.472Z,1.40
2018-10-12T01:40:30.541Z,1.50
2018-10-12T01:45:34.763Z,1.33
2018-10-12T01:50:39.013Z,1.50
2018-10-12T01:55:43.205Z,1.60
2018-10-12T02:00:47.585Z,1.73
2018-10-12T02:05:51.988Z,2.10
2018-10-12T02:10:56.221Z,1.53
2018-10-12T02:16:00.487Z,1.70
2018-10-12T02:21:04.773Z,1.57
2018-10-12T02:26:08.905Z,1.40
2018-10-12T02:31:13.060Z,1.50
2018-10-12T02:36:17.237Z,1.57
2018-10-12T02:41:21.719Z,1.53
2018-10-12T02:46:25.867Z,1.80
2018-10-12T02:51:30.393Z,1.50
2018-10-12T02:56:34.746Z,1.50
2018-10-12T03:01:38.924Z,1.50
2018-10-12T03:06:43.233Z,1.20
2018-10-12T03:11:47.630Z,1.07
2018-10-12T03:16:51.871Z,1.40
2018-10-12T03:21:56.156Z,1.10
2018-10-12T03:27:00.277Z,0.93
2018-10-12T03:32:04.535Z,1.30
2018-10-12T03:37:08.788Z,1.20
2018-10-12T03:42:13.025Z,1.20
2018-10-12T03:47:17.294Z,1.00
2018-10-12T03:52:21.478Z,1.13
2018-10-12T03:57:25.697Z,1.00
2018-10-12T04:02:29.950Z,1.07
2018-10-12T04:07:34.179Z,1.00
2018-10-12T04:12:38.714Z,1.20
2018-10-12T04:17:42.833Z,0.90
2018-10-12T04:22:47.245Z,0.97
2018-10-12T04:27:51.419Z,1.03
2018-10-12T04:32:55.671Z,0.90
2018-10-12T04:37:59.916Z,1.20
2018-10-12T04:43:04.253Z,1.10
2018-10-12T04:48:08.435Z,0.97
2018-10-12T04:53:12.660Z,0.90
2018-10-12T04:58:16.913Z,1.10
2018-10-12T05:03:21.155Z,0.97
2018-10-12T05:08:25.488Z,1.10
2018-10-12T05:13:29.921Z,0.90
2018-10-12T05:18:34.174Z,1.00
2018-10-12T05:23:38.481Z,1.10
2018-10-12T05:28:42.749Z,1.20
2018-10-12T05:33:47.089Z,1.17
2018-10-12T05:38:51.269Z,1.10
2018-10-12T05:43:55.599Z,1.23
2018-10-12T05:49:10.854Z,1.30
2018-10-12T05:54:15.487Z,0.90
2018-10-12T05:59:19.775Z,1.40
2018-10-12T06:04:23.985Z,1.33
2018-10-12T06:09:28.271Z,1.20
2018-10-12T06:14:32.455Z,1.20
2018-10-12T06:19:36.657Z,1.37
2018-10-12T06:24:40.858Z,1.30
2018-10-12T06:29:45.097Z,1.33
2018-10-12T06:34:49.279Z,1.30
2018-10-12T06:39:53.507Z,1.80
2018-10-12T06:44:57.681Z,1.57
2018-10-12T06:50:02.191Z,1.17
2018-10-12T06:55:06.996Z,1.53
2018-10-12T07:00:11.317Z,1.40
2018-10-12T07:05:15.591Z,1.37
2018-10-12T07:10:19.883Z,1.30
2018-10-12T07:15:24.088Z,1.40
2018-10-12T07:20:28.464Z,1.33
2018-10-12T07:25:32.735Z,1.27
2018-10-12T07:30:38.028Z,1.30
2018-10-12T07:35:42.226Z,1.20
2018-10-12T07:40:46.475Z,1.27
2018-10-12T07:45:51.072Z,1.33
2018-10-12T07:50:55.324Z,1.00
2018-10-12T07:55:59.519Z,1.20
2018-10-12T08:01:03.777Z,1.10
2018-10-12T08:06:08.053Z,1.00
2018-10-12T08:11:12.227Z,1.20
2018-10-12T08:16:16.473Z,1.00
2018-10-12T08:21:20.758Z,0.80
2018-10-12T08:26:25.152Z,0.83
2018-10-12T08:31:29.387Z,1.00
2018-10-12T08:36:33.661Z,0.90
2018-10-12T08:41:37.983Z,0.97
2018-10-12T08:46:42.232Z,0.97
2018-10-12T08:51:46.385Z,1.00
2018-10-12T08:56:50.602Z,1.03
2018-10-12T09:01:54.857Z,1.23
2018-10-12T09:06:59.117Z,0.83
2018-10-12T09:12:03.369Z,0.90
2018-10-12T09:17:07.543Z,1.20
2018-10-12T09:22:11.755Z,1.30
2018-10-12T09:27:16.052Z,1.37
2018-10-12T09:32:20.163Z,1.10
2018-10-12T09:37:25.856Z,1.30
2018-10-12T09:42:30.153Z,1.20
2018-10-12T09:47:34.416Z,1.30
2018-10-12T09:52:38.596Z,1.20
2018-10-12T09:57:42.805Z,1.13
2018-10-12T10:02:52.387Z,1.10
2018-10-12T10:07:56.915Z,1.50
2018-10-12T10:13:01.185Z,1.33
2018-10-12T10:18:05.457Z,1.33
2018-10-12T10:23:09.642Z,1.20
2018-10-12T10:28:13.999Z,1.10
2018-10-12T10:33:18.190Z,0.97
2018-10-12T10:38:22.473Z,1.27
2018-10-12T10:43:26.693Z,1.10
2018-10-12T10:48:31.122Z,1.17
2018-10-12T10:53:35.414Z,0.80
2018-10-12T10:58:39.649Z,1.10
2018-10-12T11:03:43.834Z,1.30
2018-10-12T11:08:47.996Z,1.40
2018-10-12T11:13:52.185Z,1.10
2018-10-12T11:18:56.420Z,1.20
2018-10-12T11:24:00.607Z,1.27
2018-10-12T11:29:04.945Z,1.27
2018-10-12T11:34:09.106Z,1.40
2018-10-12T11:39:15.155Z,1.20
2018-10-12T11:44:19.584Z,1.23
2018-10-12T11:49:23.732Z,1.33
2018-10-12T11:54:27.902Z,1.50
2018-10-12T11:59:32.236Z,1.40
2018-10-12T12:04:36.474Z,1.50
2018-10-12T12:09:40.747Z,1.50
2018-10-12T12:14:44.920Z,1.30
2018-10-12T12:19:49.118Z,1.30
2018-10-12T12:25:00.173Z,1.60
2018-10-12T12:30:05.607Z,1.60
2018-10-12T12:35:09.932Z,1.70
2018-10-12T12:40:14.023Z,1.63
2018-10-12T12:45:18.231Z,1.70
2018-10-12T12:50:22.412Z,1.60
2018-10-12T12:55:26.574Z,1.50
2018-10-12T13:00:30.841Z,1.47
2018-10-12T13:05:35.024Z,1.50
2018-10-12T13:10:39.203Z,1.47
2018-10-12T13:15:43.520Z,1.37
2018-10-12T13:20:47.713Z,1.40
2018-10-12T13:25:51.992Z,1.70
2018-10-12T13:30:56.191Z,1.60
2018-10-12T13:36:00.449Z,1.30
2018-10-12T13:41:04.663Z,1.30
2018-10-12T13:46:08.815Z,1.27
2018-10-12T13:51:13.232Z,1.40
2018-10-12T13:56:17.410Z,1.73
2018-10-12T14:01:21.805Z,1.47
2018-10-12T14:06:26.080Z,1.50
2018-10-12T14:11:30.657Z,1.97
2018-10-12T14:16:34.872Z,1.37
2018-10-12T14:21:39.026Z,1.43
2018-10-12T14:26:43.448Z,1.50
2018-10-12T14:31:47.839Z,1.43
2018-10-12T14:36:52.093Z,1.10
2018-10-12T14:41:56.384Z,1.20
2018-10-12T14:47:00.599Z,1.70
2018-10-12T14:52:04.795Z,1.30
2018-10-12T14:57:14.355Z,1.37
2018-10-12T15:02:19.546Z,1.10
2018-10-12T15:07:23.745Z,1.30
2018-10-12T15:12:27.956Z,1.27
2018-10-12T15:17:32.107Z,1.13
2018-10-12T15:22:36.361Z,1.30
2018-10-12T15:27:41.166Z,1.30
2018-10-12T15:32:45.414Z,1.33
2018-10-12T15:37:49.705Z,1.33
2018-10-12T15:42:53.996Z,1.23
2018-10-12T15:47:58.287Z,1.40
2018-10-12T15:53:02.534Z,1.63
2018-10-12T15:58:06.706Z,1.50
2018-10-12T16:03:10.915Z,1.30
2018-10-12T16:08:15.196Z,1.60
2018-10-12T16:13:19.517Z,1.53
2018-10-12T16:18:23.743Z,1.30
2018-10-12T16:23:28.195Z,1.07
2018-10-12T16:28:32.528Z,1.20
2018-10-12T16:33:36.751Z,1.20
2018-10-12T16:38:41.045Z,1.40
2018-10-12T16:43:45.288Z,1.37
2018-10-12T16:48:50.026Z,1.50
2018-10-12T16:53:54.980Z,1.60
2018-10-12T16:59:00.584Z,1.37
2018-10-12T17:04:04.900Z,1.60
2018-10-12T17:09:09.647Z,1.47
2018-10-12T17:14:14.009Z,1.30
2018-10-12T17:19:19.811Z,1.40
2018-10-12T17:24:24.092Z,1.13
2018-10-12T17:29:28.332Z,1.40
2018-10-12T17:34:32.772Z,1.50
2018-10-12T17:39:37.032Z,1.30
2018-10-12T17:44:41.281Z,1.60
2018-10-12T17:49:45.862Z,1.53
2018-10-12T17:54:50.088Z,1.30
2018-10-12T17:59:54.578Z,1.40
2018-10-12T18:04:58.988Z,1.57
2018-10-12T18:10:04.021Z,1.73
2018-10-12T18:15:10.996Z,1.53
2018-10-12T18:20:15.276Z,1.33
2018-10-12T18:25:19.959Z,1.50
2018-10-12T18:30:25.068Z,1.10
2018-10-12T18:35:29.634Z,1.30
2018-10-12T18:40:33.897Z,1.60
2018-10-12T18:45:38.541Z,1.43
2018-10-12T18:50:42.795Z,1.50
2018-10-12T18:55:48.430Z,1.60
2018-10-12T19:00:52.955Z,1.60
2018-10-12T19:05:59.885Z,1.20
2018-10-12T19:11:04.122Z,1.47
2018-10-12T19:16:08.815Z,1.17
2018-10-12T19:21:13.097Z,1.60
2018-10-12T19:26:18.565Z,1.63
2018-10-12T19:31:22.934Z,1.43
2018-10-12T19:36:27.161Z,1.70
2018-10-12T19:41:31.488Z,1.30
2018-10-12T19:46:35.711Z,1.10
2018-10-12T19:51:40.632Z,1.10
2018-10-12T19:56:45.398Z,1.30
2018-10-12T20:01:51.591Z,1.37
2018-10-12T20:06:56.929Z,1.30
2018-10-12T20:12:01.854Z,1.17
2018-10-12T20:17:06.087Z,1.33
2018-10-12T20:22:11.009Z,1.43
2018-10-12T20:27:15.194Z,1.27
2018-10-12T20:32:19.491Z,1.33
2018-10-12T20:37:23.724Z,1.80
2018-10-12T20:42:27.926Z,1.77
2018-10-12T20:47:32.167Z,1.73
2018-10-12T20:52:36.486Z,1.50
2018-10-12T20:57:47.766Z,1.10
2018-10-12T21:02:51.960Z,1.50
2018-10-12T21:07:56.185Z,1.10
2018-10-12T21:13:00.370Z,1.33
2018-10-12T21:18:04.938Z,1.50
2018-10-12T21:23:09.214Z,1.20
2018-10-12T21:28:13.475Z,1.40
2018-10-12T21:33:17.621Z,1.40
2018-10-12T21:38:21.799Z,1.43
2018-10-12T21:43:26.057Z,1.30
2018-10-12T21:48:30.283Z,1.30
2018-10-12T21:53:34.478Z,1.20
2018-10-12T21:58:38.709Z,1.17
2018-10-12T22:03:42.883Z,1.30
2018-10-12T22:08:52.192Z,1.17
2018-10-12T22:13:56.440Z,1.20
2018-10-12T22:19:00.701Z,1.30
2018-10-12T22:24:05.021Z,1.33
2018-10-12T22:29:09.325Z,1.47
2018-10-12T22:34:14.391Z,1.50
2018-10-12T22:39:18.806Z,1.27
2018-10-12T22:44:22.982Z,1.60
2018-10-12T22:49:27.226Z,1.43
2018-10-12T22:54:31.518Z,1.30
2018-10-12T22:59:35.697Z,1.33
2018-10-12T23:04:39.889Z,1.33
2018-10-12T23:09:44.148Z,1.60
2018-10-12T23:14:48.335Z,1.20
2018-10-12T23:19:52.722Z,1.33
2018-10-12T23:24:56.914Z,1.30
2018-10-12T23:30:01.131Z,1.30
2018-10-12T23:35:05.349Z,1.23
2018-10-12T23:40:09.543Z,1.17
2018-10-12T23:45:13.709Z,1.23
2018-10-12T23:50:17.929Z,1.30
2018-10-12T23:55:22.146Z,1.43
